createdAt,value
2023-01-13T00:00:18.530Z,1.10
2023-01-13T00:01:22.611Z,1.60
2023-01-13T00:02:24.332Z,1.58
2023-01-13T00:03:26.295Z,1.52
2023-01-13T00:04:29.344Z,1.70
2023-01-13T00:05:31.066Z,1.70
2023-01-13T00:06:33.134Z,2.00
2023-01-13T00:07:34.870Z,1.52
2023-01-13T00:08:36.676Z,1.80
2023-01-13T00:09:39.797Z,2.60
2023-01-13T00:10:41.565Z,1.60
2023-01-13T00:11:43.741Z,2.22
2023-01-13T00:12:45.818Z,1.63
2023-01-13T00:13:48.257Z,1.40
2023-01-13T00:14:50.381Z,1.60
2023-01-13T00:16:04.181Z,1.77
2023-01-13T00:17:05.950Z,0.80
2023-01-13T00:18:07.656Z,1.20
2023-01-13T00:19:09.472Z,1.63
2023-01-13T00:20:12.125Z,1.80
2023-01-13T00:21:19.522Z,1.50
2023-01-13T00:22:23.526Z,1.10
2023-01-13T00:23:25.238Z,1.67
2023-01-13T00:24:27.252Z,1.50
2023-01-13T00:25:29.253Z,1.45
2023-01-13T00:26:33.717Z,1.17
2023-01-13T00:27:36.089Z,1.20
2023-01-13T00:28:38.692Z,1.00
2023-01-13T00:29:40.564Z,1.23
2023-01-13T00:30:42.665Z,1.10
2023-01-13T00:31:44.251Z,1.10
2023-01-13T00:32:49.004Z,1.20
2023-01-13T00:33:51.143Z,1.27
2023-01-13T00:34:53.413Z,1.10
2023-01-13T00:35:59.066Z,0.95
2023-01-13T00:37:01.099Z,1.25
2023-01-13T00:38:03.215Z,1.00
2023-01-13T00:39:04.960Z,1.23
2023-01-13T00:40:07.756Z,0.80
2023-01-13T00:41:11.418Z,0.93
2023-01-13T00:42:31.882Z,0.70
2023-01-13T00:43:35.199Z,0.80
2023-01-13T00:44:37.323Z,0.70
2023-01-13T00:45:39.549Z,0.77
2023-01-13T00:46:41.670Z,0.63
2023-01-13T00:47:43.690Z,0.77
2023-01-13T00:48:46.288Z,0.90
2023-01-13T00:50:57.329Z,0.63
2023-01-13T00:51:59.048Z,0.70
2023-01-13T00:53:00.918Z,0.80
2023-01-13T00:54:02.618Z,0.90
2023-01-13T00:55:04.617Z,0.80
2023-01-13T00:56:10.416Z,0.75
2023-01-13T00:57:12.240Z,0.70
2023-01-13T00:58:13.963Z,0.70
2023-01-13T00:59:15.953Z,0.70
2023-01-13T01:00:18.210Z,0.70
2023-01-13T01:01:22.353Z,0.70
2023-01-13T01:02:24.254Z,1.00
2023-01-13T01:03:26.532Z,0.70
2023-01-13T01:04:28.327Z,0.68
2023-01-13T01:05:30.036Z,0.90
2023-01-13T01:06:31.981Z,1.13
2023-01-13T01:07:33.719Z,0.85
2023-01-13T01:08:35.908Z,0.75
2023-01-13T01:09:39.654Z,1.05
2023-01-13T01:10:41.469Z,0.63
2023-01-13T01:11:43.979Z,0.80
2023-01-13T01:13:48.113Z,0.80
2023-01-13T01:15:51.783Z,0.63
2023-01-13T01:16:54.669Z,0.70
2023-01-13T01:17:56.457Z,0.70
2023-01-13T01:18:58.702Z,0.60
2023-01-13T01:20:00.427Z,0.50
2023-01-13T01:21:02.366Z,0.75
2023-01-13T01:22:04.422Z,0.50
2023-01-13T01:23:06.476Z,0.80
2023-01-13T01:24:09.754Z,0.55
2023-01-13T01:25:11.440Z,0.60
2023-01-13T01:26:15.509Z,0.50
2023-01-13T01:27:17.187Z,0.80
2023-01-13T01:28:20.702Z,0.80
2023-01-13T01:29:22.686Z,1.10
2023-01-13T01:30:24.576Z,0.77
2023-01-13T01:31:29.004Z,0.80
2023-01-13T01:32:31.038Z,0.70
2023-01-13T01:33:32.813Z,0.80
2023-01-13T01:34:34.656Z,0.45
2023-01-13T01:35:40.033Z,0.82
2023-01-13T01:36:41.947Z,0.80
2023-01-13T01:37:44.120Z,0.50
2023-01-13T01:38:47.127Z,0.70
2023-01-13T01:39:48.867Z,0.65
2023-01-13T01:40:50.625Z,0.65
2023-01-13T01:42:15.364Z,0.68
2023-01-13T01:43:41.211Z,0.80
2023-01-13T01:44:43.331Z,0.70
2023-01-13T01:45:45.130Z,0.60
2023-01-13T01:46:46.807Z,0.65
2023-01-13T01:47:51.760Z,0.80
2023-01-13T01:48:53.889Z,0.80
2023-01-13T01:49:56.741Z,0.95
2023-01-13T01:50:58.718Z,0.55
2023-01-13T01:52:08.016Z,0.70
2023-01-13T01:53:13.701Z,0.68
2023-01-13T01:54:26.483Z,0.90
2023-01-13T01:55:31.568Z,0.80
2023-01-13T01:56:33.986Z,0.50
2023-01-13T01:57:54.872Z,0.63
2023-01-13T01:58:56.690Z,0.73
2023-01-13T02:00:00.955Z,0.60
2023-01-13T02:01:02.926Z,0.88
2023-01-13T02:02:29.171Z,0.98
2023-01-13T02:03:30.843Z,0.65
2023-01-13T02:04:36.575Z,0.55
2023-01-13T02:05:38.954Z,0.80
2023-01-13T02:06:41.092Z,0.68
2023-01-13T02:07:43.587Z,0.90
2023-01-13T02:09:47.237Z,0.80
2023-01-13T02:10:53.367Z,0.90
2023-01-13T02:12:13.576Z,0.70
2023-01-13T02:13:15.165Z,0.57
2023-01-13T02:14:17.343Z,0.70
2023-01-13T02:15:23.264Z,0.70
2023-01-13T02:16:24.904Z,0.70
2023-01-13T02:18:04.075Z,0.60
2023-01-13T02:19:30.656Z,0.50
2023-01-13T02:20:55.227Z,0.80
2023-01-13T02:22:27.667Z,0.57
2023-01-13T02:23:57.606Z,0.50
2023-01-13T02:25:26.572Z,0.70
2023-01-13T02:26:52.373Z,0.77
2023-01-13T02:28:11.332Z,0.40
2023-01-13T02:29:37.657Z,0.70
2023-01-13T02:31:28.635Z,0.65
2023-01-13T02:32:34.468Z,0.60
2023-01-13T02:33:51.293Z,0.90
2023-01-13T02:35:01.549Z,0.70
2023-01-13T02:36:18.280Z,1.10
2023-01-13T02:37:28.613Z,1.40
2023-01-13T02:38:34.760Z,0.70
2023-01-13T02:39:41.910Z,1.10
2023-01-13T02:40:56.800Z,0.63
2023-01-13T02:42:26.524Z,0.60
2023-01-13T02:43:48.307Z,0.60
2023-01-13T02:45:02.895Z,0.70
2023-01-13T02:46:30.163Z,0.60
2023-01-13T02:47:36.101Z,0.70
2023-01-13T02:48:38.527Z,0.52
2023-01-13T02:49:45.392Z,0.90
2023-01-13T02:51:17.528Z,0.60
2023-01-13T02:52:42.957Z,0.65
2023-01-13T02:54:04.046Z,0.82
2023-01-13T02:55:28.723Z,0.90
2023-01-13T02:56:31.833Z,0.70
2023-01-13T02:57:34.715Z,0.55
2023-01-13T02:58:37.528Z,0.80
2023-01-13T02:59:40.297Z,0.77
2023-01-13T03:00:42.333Z,0.65
2023-01-13T03:01:44.044Z,0.40
2023-01-13T03:02:47.997Z,0.80
2023-01-13T03:03:50.127Z,0.82
2023-01-13T03:05:02.159Z,0.73
2023-01-13T03:06:29.962Z,0.60
2023-01-13T03:08:09.159Z,0.68
2023-01-13T03:09:22.953Z,0.70
2023-01-13T03:10:39.901Z,0.98
2023-01-13T03:12:10.692Z,0.70
2023-01-13T03:13:46.903Z,0.60
2023-01-13T03:14:59.852Z,0.80
2023-01-13T03:16:11.089Z,0.57
2023-01-13T03:17:22.487Z,0.63
2023-01-13T03:18:43.019Z,0.43
2023-01-13T03:19:52.225Z,0.55
2023-01-13T03:21:27.323Z,0.75
2023-01-13T03:22:39.887Z,0.60
2023-01-13T03:23:49.698Z,0.63
2023-01-13T03:25:14.227Z,0.60
2023-01-13T03:26:40.400Z,0.68
2023-01-13T03:28:13.514Z,0.70
2023-01-13T03:29:22.657Z,0.45
2023-01-13T03:30:34.435Z,0.40
2023-01-13T03:31:41.247Z,0.60
2023-01-13T03:32:45.444Z,0.90
2023-01-13T03:33:55.820Z,0.50
2023-01-13T03:35:05.009Z,0.68
2023-01-13T03:36:09.484Z,0.80
2023-01-13T03:37:12.789Z,0.55
2023-01-13T03:38:21.123Z,0.70
2023-01-13T03:39:28.027Z,0.60
2023-01-13T03:40:33.817Z,0.70
2023-01-13T03:41:39.190Z,0.60
2023-01-13T03:42:41.977Z,0.45
2023-01-13T03:44:12.481Z,0.80
2023-01-13T03:45:17.729Z,0.60
2023-01-13T03:47:04.460Z,0.60
2023-01-13T03:48:09.086Z,0.70
2023-01-13T03:49:14.069Z,0.70
2023-01-13T03:50:21.959Z,0.70
2023-01-13T03:51:25.253Z,0.57
2023-01-13T03:52:31.910Z,0.60
2023-01-13T03:53:37.849Z,0.70
2023-01-13T03:54:48.453Z,0.65
2023-01-13T03:55:58.167Z,0.80
2023-01-13T03:57:04.117Z,0.65
2023-01-13T03:58:10.441Z,0.70
2023-01-13T03:59:17.511Z,0.70
2023-01-13T04:00:23.673Z,0.60
2023-01-13T04:01:29.576Z,0.85
2023-01-13T04:02:47.361Z,0.65
2023-01-13T04:04:05.613Z,0.90
2023-01-13T04:05:09.374Z,0.55
2023-01-13T04:06:21.473Z,0.55
2023-01-13T04:07:25.911Z,0.80
2023-01-13T04:08:28.321Z,0.73
2023-01-13T04:10:53.723Z,0.65
2023-01-13T04:12:01.649Z,0.90
2023-01-13T04:13:07.016Z,0.80
2023-01-13T04:14:10.637Z,0.82
2023-01-13T04:15:12.324Z,0.63
2023-01-13T04:16:14.037Z,0.60
2023-01-13T04:17:16.257Z,0.55
2023-01-13T04:18:28.602Z,0.90
2023-01-13T04:19:31.267Z,0.50
2023-01-13T04:20:32.872Z,0.73
2023-01-13T04:21:35.473Z,0.60
2023-01-13T04:22:37.107Z,0.80
2023-01-13T04:23:38.771Z,0.70
2023-01-13T04:24:40.361Z,0.40
2023-01-13T04:25:42.919Z,0.90
2023-01-13T04:27:45.961Z,0.60
2023-01-13T04:28:47.711Z,0.47
2023-01-13T04:29:49.242Z,0.80
2023-01-13T04:30:50.870Z,0.80
2023-01-13T04:31:52.511Z,0.68
2023-01-13T04:32:54.108Z,0.63
2023-01-13T04:33:55.822Z,0.75
2023-01-13T04:34:57.882Z,0.60
2023-01-13T04:35:59.560Z,0.93
2023-01-13T04:37:01.114Z,0.90
2023-01-13T04:38:04.357Z,0.60
2023-01-13T04:39:06.001Z,0.57
2023-01-13T04:40:08.360Z,0.73
2023-01-13T04:41:09.960Z,0.70
2023-01-13T04:42:11.521Z,0.70
2023-01-13T04:43:15.591Z,0.70
2023-01-13T04:44:17.235Z,1.23
2023-01-13T04:45:18.865Z,1.00
2023-01-13T04:46:20.572Z,0.80
2023-01-13T04:47:22.458Z,0.60
2023-01-13T04:48:24.034Z,0.80
2023-01-13T04:49:25.720Z,0.80
2023-01-13T04:50:27.782Z,0.52
2023-01-13T04:51:29.369Z,0.80
2023-01-13T04:52:31.070Z,0.65
2023-01-13T04:53:32.620Z,0.73
2023-01-13T04:54:34.288Z,0.75
2023-01-13T04:55:35.931Z,0.50
2023-01-13T04:56:37.525Z,0.82
2023-01-13T04:57:39.158Z,0.80
2023-01-13T04:58:40.751Z,0.50
2023-01-13T04:59:42.473Z,0.70
2023-01-13T05:00:44.119Z,0.75
2023-01-13T05:01:45.870Z,0.68
2023-01-13T05:02:50.102Z,0.82
2023-01-13T05:03:51.730Z,0.55
2023-01-13T05:04:53.424Z,0.75
2023-01-13T05:05:55.023Z,1.52
2023-01-13T05:06:56.737Z,0.95
2023-01-13T05:07:58.542Z,0.73
2023-01-13T05:09:00.113Z,0.70
2023-01-13T05:10:01.977Z,0.80
2023-01-13T05:11:26.286Z,0.70
2023-01-13T05:12:46.522Z,0.50
2023-01-13T05:14:06.503Z,1.00
2023-01-13T05:15:28.438Z,0.80
2023-01-13T05:16:48.321Z,0.75
2023-01-13T05:17:50.345Z,0.80
2023-01-13T05:18:51.939Z,0.88
2023-01-13T05:19:53.561Z,0.50
2023-01-13T05:20:55.152Z,0.90
2023-01-13T05:22:16.408Z,0.57
2023-01-13T05:23:36.609Z,0.90
2023-01-13T05:24:56.845Z,0.70
2023-01-13T05:25:58.511Z,0.70
2023-01-13T05:27:00.149Z,0.90
2023-01-13T05:28:01.773Z,0.70
2023-01-13T05:29:03.373Z,0.60
2023-01-13T05:30:06.084Z,0.70
2023-01-13T05:31:07.783Z,0.70
2023-01-13T05:32:09.462Z,0.57
2023-01-13T05:33:12.293Z,0.50
2023-01-13T05:34:13.943Z,0.55
2023-01-13T05:35:16.153Z,0.75
2023-01-13T05:36:18.526Z,0.60
2023-01-13T05:37:20.157Z,0.55
2023-01-13T05:38:21.851Z,0.65
2023-01-13T05:39:23.488Z,0.98
2023-01-13T05:40:43.775Z,0.82
2023-01-13T05:42:03.957Z,0.80
2023-01-13T05:43:19.808Z,0.70
2023-01-13T05:44:21.406Z,0.80
2023-01-13T05:45:23.456Z,0.80
2023-01-13T05:46:25.186Z,1.00
2023-01-13T05:47:26.814Z,0.90
2023-01-13T05:48:32.214Z,0.75
2023-01-13T05:49:33.868Z,1.00
2023-01-13T05:50:35.418Z,0.98
2023-01-13T05:51:39.873Z,0.90
2023-01-13T05:52:41.547Z,1.10
2023-01-13T05:53:43.152Z,0.65
2023-01-13T05:54:44.747Z,0.70
2023-01-13T05:55:46.748Z,0.80
2023-01-13T05:56:48.494Z,0.70
2023-01-13T05:57:50.062Z,0.70
2023-01-13T05:58:51.561Z,0.90
2023-01-13T05:59:53.174Z,1.08
2023-01-13T06:01:02.951Z,0.73
2023-01-13T06:02:04.649Z,1.45
2023-01-13T06:03:06.476Z,1.13
2023-01-13T06:04:08.068Z,1.30
2023-01-13T06:05:09.683Z,1.10
2023-01-13T06:06:11.312Z,1.33
2023-01-13T06:07:12.920Z,0.75
2023-01-13T06:08:14.914Z,1.08
2023-01-13T06:09:16.593Z,1.23
2023-01-13T06:10:18.243Z,1.60
2023-01-13T06:11:19.830Z,1.40
2023-01-13T06:12:21.475Z,1.20
2023-01-13T06:13:25.179Z,1.15
2023-01-13T06:14:39.890Z,1.30
2023-01-13T06:16:43.190Z,0.90
2023-01-13T06:17:44.816Z,0.95
2023-01-13T06:18:46.401Z,0.93
2023-01-13T06:19:48.027Z,0.70
2023-01-13T06:20:49.590Z,0.75
2023-01-13T06:21:51.213Z,0.60
2023-01-13T06:22:53.571Z,0.65
2023-01-13T06:23:55.164Z,0.75
2023-01-13T06:24:56.744Z,0.52
2023-01-13T06:26:07.988Z,0.80
2023-01-13T06:27:10.006Z,0.98
2023-01-13T06:28:11.638Z,0.88
2023-01-13T06:29:15.000Z,0.60
2023-01-13T06:30:17.497Z,0.68
2023-01-13T06:32:24.626Z,0.60
2023-01-13T06:33:32.837Z,0.70
2023-01-13T06:34:35.612Z,0.95
2023-01-13T06:35:37.955Z,0.80
2023-01-13T06:36:46.510Z,0.77
2023-01-13T06:37:50.259Z,0.90
2023-01-13T06:38:54.868Z,0.50
2023-01-13T06:39:58.555Z,0.75
2023-01-13T06:41:00.147Z,0.68
2023-01-13T06:42:21.849Z,0.70
2023-01-13T06:43:23.484Z,0.50
2023-01-13T06:44:25.119Z,0.88
2023-01-13T06:45:27.651Z,0.70
2023-01-13T06:47:31.500Z,0.98
2023-01-13T06:48:35.191Z,0.50
2023-01-13T06:49:37.002Z,0.60
2023-01-13T06:50:38.934Z,0.40
2023-01-13T06:51:40.493Z,0.60
2023-01-13T06:52:42.083Z,0.50
2023-01-13T06:53:43.704Z,0.80
2023-01-13T06:54:45.289Z,0.50
2023-01-13T06:55:47.018Z,0.60
2023-01-13T06:56:48.615Z,0.70
2023-01-13T06:57:52.202Z,0.55
2023-01-13T06:58:53.820Z,0.93
2023-01-13T06:59:55.439Z,0.60
2023-01-13T07:01:00.619Z,0.45
2023-01-13T07:02:02.910Z,0.50
2023-01-13T07:03:07.220Z,0.28
2023-01-13T07:04:08.935Z,0.70
2023-01-13T07:05:10.922Z,0.80
2023-01-13T07:06:12.498Z,0.40
2023-01-13T07:07:14.282Z,0.77
2023-01-13T07:08:15.843Z,0.60
2023-01-13T07:09:17.459Z,0.50
2023-01-13T07:10:22.228Z,0.88
2023-01-13T07:11:24.961Z,0.60
2023-01-13T07:12:26.606Z,0.90
2023-01-13T07:13:46.870Z,0.70
2023-01-13T07:15:07.144Z,0.40
2023-01-13T07:16:10.013Z,0.70
2023-01-13T07:17:11.774Z,0.60
2023-01-13T07:18:13.379Z,0.63
2023-01-13T07:19:15.887Z,0.80
2023-01-13T07:21:20.058Z,0.50
2023-01-13T07:22:21.708Z,0.70
2023-01-13T07:23:24.236Z,0.70
2023-01-13T07:25:27.471Z,0.60
2023-01-13T07:26:29.066Z,0.60
2023-01-13T07:27:30.699Z,0.60
2023-01-13T07:28:32.533Z,0.73
2023-01-13T07:29:34.127Z,1.10
2023-01-13T07:30:35.757Z,0.75
2023-01-13T07:31:37.507Z,0.82
2023-01-13T07:32:39.447Z,0.68
2023-01-13T07:33:41.075Z,0.70
2023-01-13T07:34:42.672Z,1.08
2023-01-13T07:35:45.062Z,0.65
2023-01-13T07:36:46.670Z,0.65
2023-01-13T07:37:48.721Z,0.70
2023-01-13T07:38:50.318Z,0.60
2023-01-13T07:39:51.954Z,0.68
2023-01-13T07:40:53.566Z,0.70
2023-01-13T07:42:13.888Z,0.70
2023-01-13T07:43:33.939Z,0.70
2023-01-13T07:44:35.645Z,0.88
2023-01-13T07:45:37.303Z,0.40
2023-01-13T07:46:39.127Z,0.40
2023-01-13T07:47:40.900Z,0.55
2023-01-13T07:48:42.628Z,0.75
2023-01-13T07:49:44.276Z,0.50
2023-01-13T07:50:45.928Z,0.70
2023-01-13T07:51:47.615Z,0.60
2023-01-13T07:52:50.453Z,0.63
2023-01-13T07:53:52.031Z,0.80
2023-01-13T07:54:53.634Z,0.85
2023-01-13T07:55:56.907Z,2.17
2023-01-13T07:56:58.578Z,0.70
2023-01-13T07:58:00.255Z,1.20
2023-01-13T07:59:01.960Z,1.10
2023-01-13T08:00:05.182Z,1.40
2023-01-13T08:01:12.170Z,1.42
2023-01-13T08:02:14.071Z,1.40
2023-01-13T08:03:15.857Z,1.45
2023-01-13T08:04:17.439Z,1.20
2023-01-13T08:05:19.087Z,0.90
2023-01-13T08:06:20.701Z,0.90
2023-01-13T08:07:22.278Z,0.95
2023-01-13T08:08:23.988Z,0.70
2023-01-13T08:09:25.636Z,0.35
2023-01-13T08:10:27.313Z,0.50
2023-01-13T08:11:28.858Z,0.70
2023-01-13T08:12:53.787Z,0.65
2023-01-13T08:13:58.821Z,0.68
2023-01-13T08:15:00.433Z,0.95
2023-01-13T08:16:10.247Z,0.90
2023-01-13T08:17:11.897Z,0.80
2023-01-13T08:18:13.782Z,0.75
2023-01-13T08:19:15.472Z,0.70
2023-01-13T08:20:17.129Z,0.47
2023-01-13T08:21:18.725Z,0.40
2023-01-13T08:22:20.334Z,0.75
2023-01-13T08:23:22.934Z,0.70
2023-01-13T08:24:24.461Z,0.70
2023-01-13T08:25:27.423Z,0.65
2023-01-13T08:26:28.999Z,0.50
2023-01-13T08:27:30.595Z,0.68
2023-01-13T08:28:32.509Z,0.60
2023-01-13T08:29:34.107Z,0.60
2023-01-13T08:30:35.816Z,0.60
2023-01-13T08:31:37.454Z,0.70
2023-01-13T08:32:39.046Z,0.63
2023-01-13T08:33:40.676Z,0.77
2023-01-13T08:34:42.288Z,0.65
2023-01-13T08:35:43.933Z,0.52
2023-01-13T08:36:45.529Z,0.80
2023-01-13T08:37:47.923Z,0.60
2023-01-13T08:38:49.597Z,0.57
2023-01-13T08:39:51.209Z,0.80
2023-01-13T08:40:52.964Z,0.70
2023-01-13T08:41:58.404Z,0.75
2023-01-13T08:43:00.581Z,0.73
2023-01-13T08:44:02.215Z,0.90
2023-01-13T08:45:04.609Z,0.68
2023-01-13T08:46:06.714Z,0.57
2023-01-13T08:47:08.408Z,0.57
2023-01-13T08:48:10.088Z,0.80
2023-01-13T08:49:11.716Z,0.80
2023-01-13T08:50:14.438Z,0.75
2023-01-13T08:51:16.060Z,0.90
2023-01-13T08:52:17.714Z,0.63
2023-01-13T08:53:20.090Z,0.77
2023-01-13T08:54:21.745Z,0.68
2023-01-13T08:55:23.381Z,0.80
2023-01-13T08:56:25.051Z,0.80
2023-01-13T08:57:26.734Z,0.75
2023-01-13T08:58:28.561Z,0.77
2023-01-13T08:59:30.341Z,0.82
2023-01-13T09:00:31.953Z,0.80
2023-01-13T09:01:33.999Z,0.93
2023-01-13T09:02:35.751Z,0.93
2023-01-13T09:03:39.080Z,0.70
2023-01-13T09:04:40.821Z,0.98
2023-01-13T09:05:42.540Z,0.60
2023-01-13T09:06:44.848Z,0.85
2023-01-13T09:07:46.464Z,0.70
2023-01-13T09:08:48.111Z,0.82
2023-01-13T09:09:49.777Z,1.13
2023-01-13T09:10:51.793Z,1.40
2023-01-13T09:12:12.397Z,1.00
2023-01-13T09:13:14.528Z,1.08
2023-01-13T09:14:20.817Z,0.80
2023-01-13T09:15:22.487Z,0.70
2023-01-13T09:16:24.122Z,0.95
2023-01-13T09:17:25.991Z,0.70
2023-01-13T09:18:27.628Z,0.70
2023-01-13T09:19:29.653Z,0.80
2023-01-13T09:20:31.279Z,0.80
2023-01-13T09:21:32.938Z,0.75
2023-01-13T09:22:36.362Z,0.65
2023-01-13T09:23:37.959Z,0.80
2023-01-13T09:24:39.584Z,0.95
2023-01-13T09:25:41.318Z,1.15
2023-01-13T09:26:42.925Z,1.00
2023-01-13T09:27:44.504Z,0.60
2023-01-13T09:28:46.124Z,0.80
2023-01-13T09:29:47.877Z,0.88
2023-01-13T09:30:49.518Z,0.85
2023-01-13T09:31:51.145Z,0.70
2023-01-13T09:33:12.775Z,0.90
2023-01-13T09:34:35.461Z,0.70
2023-01-13T09:35:37.131Z,1.00
2023-01-13T09:36:38.966Z,1.08
2023-01-13T09:37:41.369Z,0.77
2023-01-13T09:38:43.020Z,1.00
2023-01-13T09:39:44.640Z,0.90
2023-01-13T09:40:48.234Z,0.93
2023-01-13T09:42:09.624Z,0.80
2023-01-13T09:43:49.597Z,0.80
2023-01-13T09:45:08.865Z,0.88
2023-01-13T09:46:44.054Z,1.10
2023-01-13T09:47:58.124Z,1.00
2023-01-13T09:49:00.206Z,0.82
2023-01-13T09:50:26.967Z,1.02
2023-01-13T09:52:32.531Z,0.70
2023-01-13T09:53:38.666Z,0.90
2023-01-13T09:54:43.366Z,0.80
2023-01-13T09:55:45.609Z,0.80
2023-01-13T09:56:47.513Z,0.85
2023-01-13T09:57:49.113Z,0.70
2023-01-13T09:58:50.751Z,0.80
2023-01-13T09:59:52.347Z,0.88
2023-01-13T10:01:19.047Z,0.80
2023-01-13T10:03:41.415Z,0.80
2023-01-13T10:04:43.134Z,0.65
2023-01-13T10:05:52.055Z,1.00
2023-01-13T10:06:58.057Z,1.02
2023-01-13T10:08:05.231Z,1.20
2023-01-13T10:09:13.655Z,0.80
2023-01-13T10:10:40.537Z,1.17
2023-01-13T10:12:02.254Z,1.00
2023-01-13T10:13:14.242Z,0.93
2023-01-13T10:14:19.270Z,0.80
2023-01-13T10:15:23.111Z,0.60
2023-01-13T10:16:41.961Z,0.70
2023-01-13T10:17:51.666Z,1.00
2023-01-13T10:19:06.892Z,0.75
2023-01-13T10:20:27.912Z,0.90
2023-01-13T10:21:41.654Z,1.00
2023-01-13T10:22:52.078Z,0.90
2023-01-13T10:24:01.706Z,0.63
2023-01-13T10:25:20.420Z,0.70
2023-01-13T10:26:40.515Z,0.75
2023-01-13T10:27:43.817Z,1.08
2023-01-13T10:28:52.098Z,0.68
2023-01-13T10:29:53.675Z,1.00
2023-01-13T10:30:55.356Z,0.80
2023-01-13T10:31:59.233Z,0.80
2023-01-13T10:33:17.384Z,0.70
2023-01-13T10:34:20.521Z,0.70
2023-01-13T10:35:50.977Z,0.93
2023-01-13T10:37:03.107Z,0.52
2023-01-13T10:38:04.760Z,0.80
2023-01-13T10:39:15.872Z,0.60
2023-01-13T10:40:18.687Z,0.90
2023-01-13T10:41:25.590Z,0.70
2023-01-13T10:42:27.228Z,0.82
2023-01-13T10:43:29.946Z,0.90
2023-01-13T10:44:31.945Z,0.90
2023-01-13T10:45:33.604Z,1.30
2023-01-13T10:46:51.294Z,1.48
2023-01-13T10:48:06.791Z,1.05
2023-01-13T10:49:36.328Z,0.93
2023-01-13T10:50:38.592Z,0.90
2023-01-13T10:51:40.184Z,1.30
2023-01-13T10:52:56.808Z,1.05
2023-01-13T10:54:00.578Z,0.90
2023-01-13T10:55:02.483Z,1.60
2023-01-13T10:56:05.630Z,1.50
2023-01-13T10:57:35.948Z,1.08
2023-01-13T10:58:37.589Z,0.77
2023-01-13T10:59:39.174Z,1.20
2023-01-13T11:00:40.836Z,1.00
2023-01-13T11:02:13.001Z,1.00
2023-01-13T11:04:39.306Z,1.00
2023-01-13T11:05:48.333Z,1.00
2023-01-13T11:06:49.943Z,0.80
2023-01-13T11:07:54.483Z,1.00
2023-01-13T11:08:58.444Z,1.00
2023-01-13T11:10:08.941Z,1.20
2023-01-13T11:11:27.971Z,1.20
2023-01-13T11:12:34.191Z,0.80
2023-01-13T11:14:01.744Z,1.00
2023-01-13T11:15:07.740Z,0.70
2023-01-13T11:16:16.697Z,0.80
2023-01-13T11:17:27.546Z,0.60
2023-01-13T11:18:32.290Z,0.70
2023-01-13T11:19:34.644Z,0.70
2023-01-13T11:20:41.287Z,1.00
2023-01-13T11:22:02.932Z,0.90
2023-01-13T11:23:13.522Z,0.73
2023-01-13T11:24:24.544Z,0.80
2023-01-13T11:25:42.086Z,0.70
2023-01-13T11:27:23.948Z,1.10
2023-01-13T11:28:36.378Z,1.10
2023-01-13T11:30:12.277Z,0.80
2023-01-13T11:31:22.709Z,0.90
2023-01-13T11:32:24.925Z,1.00
2023-01-13T11:33:30.481Z,0.93
2023-01-13T11:34:40.631Z,1.13
2023-01-13T11:35:46.160Z,1.10
2023-01-13T11:36:51.727Z,0.80
2023-01-13T11:38:04.648Z,0.82
2023-01-13T11:39:19.154Z,0.85
2023-01-13T11:40:48.827Z,0.93
2023-01-13T11:42:16.202Z,0.70
2023-01-13T11:43:28.694Z,0.80
2023-01-13T11:44:47.034Z,0.70
2023-01-13T11:45:55.284Z,0.90
2023-01-13T11:46:56.944Z,0.80
2023-01-13T11:48:00.363Z,0.80
2023-01-13T11:49:03.678Z,1.08
2023-01-13T11:50:15.136Z,1.00
2023-01-13T11:51:34.746Z,1.02
2023-01-13T11:52:45.425Z,0.90
2023-01-13T11:53:53.243Z,0.80
2023-01-13T11:55:16.401Z,0.90
2023-01-13T11:56:57.467Z,0.60
2023-01-13T11:58:28.974Z,0.90
2023-01-13T11:59:40.970Z,0.77
2023-01-13T12:00:45.862Z,0.70
2023-01-13T12:02:11.846Z,0.70
2023-01-13T12:03:19.173Z,0.75
2023-01-13T12:04:25.178Z,0.73
2023-01-13T12:05:42.772Z,0.80
2023-01-13T12:06:46.044Z,0.60
2023-01-13T12:08:10.907Z,0.45
2023-01-13T12:09:57.599Z,0.55
2023-01-13T12:10:59.265Z,0.50
2023-01-13T12:12:20.028Z,0.70
2023-01-13T12:15:07.018Z,0.90
2023-01-13T12:16:15.019Z,0.82
2023-01-13T12:17:34.951Z,1.10
2023-01-13T12:19:07.740Z,1.10
2023-01-13T12:20:23.662Z,0.82
2023-01-13T12:21:38.843Z,1.40
2023-01-13T12:22:41.695Z,1.63
2023-01-13T12:24:04.706Z,1.60
2023-01-13T12:25:15.648Z,1.80
2023-01-13T12:26:17.597Z,1.23
2023-01-13T12:27:27.230Z,1.27
2023-01-13T12:28:41.617Z,1.40
2023-01-13T12:29:44.695Z,1.13
2023-01-13T12:30:52.050Z,1.33
2023-01-13T12:31:53.992Z,1.40
2023-01-13T12:33:00.793Z,1.40
2023-01-13T12:34:32.358Z,1.10
2023-01-13T12:35:39.023Z,1.00
2023-01-13T12:36:59.235Z,1.38
2023-01-13T12:38:13.679Z,1.40
2023-01-13T12:39:18.432Z,1.23
2023-01-13T12:40:20.153Z,1.20
2023-01-13T12:41:27.622Z,0.65
2023-01-13T12:42:52.573Z,0.70
2023-01-13T12:44:12.855Z,0.88
2023-01-13T12:45:14.458Z,0.60
2023-01-13T12:46:19.081Z,0.60
2023-01-13T12:47:53.237Z,0.80
2023-01-13T12:48:56.657Z,0.75
2023-01-13T12:50:26.153Z,0.70
2023-01-13T12:51:52.600Z,0.82
2023-01-13T12:53:01.564Z,0.60
2023-01-13T12:54:32.164Z,0.70
2023-01-13T12:55:35.044Z,0.40
2023-01-13T12:56:42.211Z,0.80
2023-01-13T12:57:55.739Z,0.60
2023-01-13T12:59:19.419Z,0.90
2023-01-13T13:00:21.144Z,0.90
2023-01-13T13:01:35.355Z,0.90
2023-01-13T13:02:41.162Z,0.88
2023-01-13T13:04:21.636Z,0.50
2023-01-13T13:05:23.198Z,0.77
2023-01-13T13:06:29.542Z,0.95
2023-01-13T13:07:31.085Z,0.63
2023-01-13T13:08:45.218Z,1.50
2023-01-13T13:09:53.401Z,0.52
2023-01-13T13:11:34.659Z,0.70
2023-01-13T13:13:01.148Z,1.13
2023-01-13T13:14:05.533Z,1.00
2023-01-13T13:15:28.768Z,0.70
2023-01-13T13:16:30.441Z,0.70
2023-01-13T13:17:32.094Z,0.80
2023-01-13T13:18:33.971Z,0.73
2023-01-13T13:19:35.501Z,0.88
2023-01-13T13:21:09.846Z,0.65
2023-01-13T13:22:19.050Z,0.57
2023-01-13T13:23:28.099Z,0.80
2023-01-13T13:24:29.739Z,0.60
2023-01-13T13:25:31.498Z,0.50
2023-01-13T13:26:38.712Z,0.38
2023-01-13T13:27:50.607Z,0.38
2023-01-13T13:29:13.866Z,0.60
2023-01-13T13:30:27.137Z,0.63
2023-01-13T13:31:47.342Z,0.20
2023-01-13T13:33:28.090Z,0.40
2023-01-13T13:35:03.207Z,0.25
2023-01-13T13:36:35.575Z,0.20
2023-01-13T13:38:05.092Z,0.30
2023-01-13T13:39:37.596Z,0.40
2023-01-13T13:41:03.113Z,0.22
2023-01-13T13:42:34.463Z,0.50
2023-01-13T13:44:03.198Z,0.25
2023-01-13T13:45:40.304Z,0.30
2023-01-13T13:46:49.114Z,0.20
2023-01-13T13:48:54.644Z,0.22
2023-01-13T13:50:04.779Z,0.20
2023-01-13T13:51:28.809Z,0.30
2023-01-13T13:52:35.998Z,0.40
2023-01-13T13:53:40.640Z,0.32
2023-01-13T13:54:47.561Z,0.40
2023-01-13T13:55:59.771Z,0.47
2023-01-13T13:57:01.492Z,0.50
2023-01-13T13:58:03.107Z,0.60
2023-01-13T13:59:04.737Z,0.60
2023-01-13T14:00:27.879Z,0.52
2023-01-13T14:01:40.890Z,0.60
2023-01-13T14:02:48.723Z,0.80
2023-01-13T14:04:18.285Z,0.80
2023-01-13T14:05:20.036Z,0.80
2023-01-13T14:06:24.331Z,0.60
2023-01-13T14:07:26.290Z,0.70
2023-01-13T14:08:30.078Z,0.80
2023-01-13T14:09:41.803Z,0.60
2023-01-13T14:10:45.946Z,0.38
2023-01-13T14:11:58.415Z,0.40
2023-01-13T14:13:01.503Z,0.40
2023-01-13T14:14:12.552Z,0.50
2023-01-13T14:15:35.265Z,0.60
2023-01-13T14:16:38.115Z,0.80
2023-01-13T14:17:39.704Z,0.52
2023-01-13T14:18:48.111Z,0.40
2023-01-13T14:20:05.316Z,0.55
2023-01-13T14:21:27.483Z,0.60
2023-01-13T14:22:29.161Z,0.60
2023-01-13T14:23:32.787Z,0.80
2023-01-13T14:24:45.407Z,0.73
2023-01-13T14:25:48.697Z,0.60
2023-01-13T14:26:53.104Z,0.70
2023-01-13T14:27:55.946Z,0.70
2023-01-13T14:28:59.335Z,1.65
2023-01-13T14:30:01.322Z,1.13
2023-01-13T14:31:04.273Z,1.30
2023-01-13T14:32:06.957Z,1.30
2023-01-13T14:33:15.901Z,1.58
2023-01-13T14:34:32.189Z,1.13
2023-01-13T14:35:34.394Z,1.75
2023-01-13T14:36:37.365Z,1.45
2023-01-13T14:37:40.904Z,1.88
2023-01-13T14:38:50.659Z,1.60
2023-01-13T14:39:52.454Z,1.50
2023-01-13T14:40:54.081Z,1.52
2023-01-13T14:41:55.807Z,1.50
2023-01-13T14:43:02.129Z,1.75
2023-01-13T14:44:28.940Z,2.47
2023-01-13T14:45:33.118Z,1.98
2023-01-13T14:46:37.657Z,1.60
2023-01-13T14:47:39.586Z,1.60
2023-01-13T14:48:47.032Z,1.45
2023-01-13T14:49:58.999Z,1.73
2023-01-13T14:51:00.773Z,1.83
2023-01-13T14:52:13.438Z,1.70
2023-01-13T14:53:47.577Z,2.53
2023-01-13T14:55:05.437Z,2.17
2023-01-13T14:56:49.572Z,1.90
2023-01-13T14:57:51.403Z,1.65
2023-01-13T14:58:53.060Z,1.45
2023-01-13T15:00:05.274Z,1.50
2023-01-13T15:01:26.654Z,1.77
2023-01-13T15:02:31.493Z,2.50
2023-01-13T15:03:42.263Z,2.30
2023-01-13T15:04:44.006Z,2.72
2023-01-13T15:05:47.843Z,2.30
2023-01-13T15:06:51.587Z,1.88
2023-01-13T15:07:56.958Z,1.77
2023-01-13T15:08:58.483Z,2.03
2023-01-13T15:10:01.878Z,1.90
2023-01-13T15:11:05.857Z,2.10
2023-01-13T15:12:40.874Z,1.40
2023-01-13T15:13:53.433Z,1.40
2023-01-13T15:14:55.435Z,1.50
2023-01-13T15:15:59.005Z,1.90
2023-01-13T15:17:00.864Z,1.40
2023-01-13T15:18:10.032Z,1.90
2023-01-13T15:19:11.602Z,1.40